createdAt,value
2017-12-22T00:00:41.491Z,102278
2017-12-22T00:03:11.425Z,102289
2017-12-22T00:05:41.315Z,102292
2017-12-22T00:08:11.294Z,102294
2017-12-22T00:10:41.232Z,102287
2017-12-22T00:13:11.149Z,102290
2017-12-22T00:15:46.803Z,102289
2017-12-22T00:21:24.288Z,102280
2017-12-22T00:24:01.182Z,102283
2017-12-22T00:26:32.091Z,102280
2017-12-22T00:29:02.058Z,102274
2017-12-22T00:31:32.061Z,102268
2017-12-22T00:34:02.043Z,102266
2017-12-22T00:36:32.014Z,102266
2017-12-22T00:39:01.996Z,102263
2017-12-22T00:41:31.972Z,102265
2017-12-22T00:44:02.026Z,102272
2017-12-22T00:46:32.040Z,102271
2017-12-22T00:49:01.989Z,102271
2017-12-22T00:51:33.248Z,102273
2017-12-22T00:54:03.472Z,102274
2017-12-22T00:56:33.501Z,102254
2017-12-22T00:59:03.638Z,102249
2017-12-22T01:01:33.651Z,102260
2017-12-22T01:04:03.621Z,102259
2017-12-22T01:06:33.637Z,102261
2017-12-22T01:09:03.635Z,102260
2017-12-22T01:11:33.632Z,102263
2017-12-22T01:14:03.705Z,102253
2017-12-22T01:16:39.399Z,102247
2017-12-22T01:19:14.926Z,102164
2017-12-22T01:21:44.857Z,102244
2017-12-22T01:24:14.891Z,102246
2017-12-22T01:26:44.936Z,102248
2017-12-22T01:29:14.962Z,102241
2017-12-22T01:31:45.963Z,102239
2017-12-22T01:34:16.109Z,102242
2017-12-22T01:36:46.062Z,102230
2017-12-22T01:39:16.120Z,102226
2017-12-22T01:41:46.077Z,102221
2017-12-22T01:44:16.125Z,102231
2017-12-22T01:46:46.154Z,102236
2017-12-22T01:49:16.078Z,102147
2017-12-22T01:51:45.985Z,102238
2017-12-22T01:54:15.977Z,102242
2017-12-22T01:56:46.071Z,102241
2017-12-22T01:59:16.043Z,102250
2017-12-22T02:01:46.014Z,102247
2017-12-22T02:04:15.979Z,102231
2017-12-22T02:06:45.931Z,102235
2017-12-22T02:09:15.862Z,102241
2017-12-22T02:11:45.877Z,102237
2017-12-22T02:14:15.821Z,102242
2017-12-22T02:16:46.094Z,102238
2017-12-22T02:19:16.149Z,102238
2017-12-22T02:21:46.243Z,102243
2017-12-22T02:24:16.491Z,102238
2017-12-22T02:26:46.586Z,102239
2017-12-22T02:29:16.543Z,102248
2017-12-22T02:31:46.538Z,102248
2017-12-22T02:34:16.568Z,102246
2017-12-22T02:36:46.603Z,102252
2017-12-22T02:42:36.656Z,102248
2017-12-22T02:45:06.719Z,102242
2017-12-22T02:47:36.705Z,102244
2017-12-22T02:50:08.550Z,102249
2017-12-22T02:52:38.563Z,102248
2017-12-22T02:55:08.532Z,102248
2017-12-22T02:58:10.654Z,102244
2017-12-22T03:00:42.759Z,102241
2017-12-22T03:03:12.846Z,102245
2017-12-22T03:05:42.908Z,102256
2017-12-22T03:08:12.869Z,102253
2017-12-22T03:10:42.811Z,102266
2017-12-22T03:13:12.893Z,102262
2017-12-22T03:15:43.114Z,102262
2017-12-22T03:21:07.939Z,102252
2017-12-22T03:23:38.125Z,102255
2017-12-22T03:26:08.057Z,102262
2017-12-22T03:28:38.083Z,102263
2017-12-22T03:31:08.086Z,102265
2017-12-22T03:33:38.100Z,102259
2017-12-22T03:36:08.104Z,102264
2017-12-22T03:38:38.458Z,102268
2017-12-22T03:41:08.379Z,102261
2017-12-22T03:43:38.416Z,102259
2017-12-22T03:46:08.394Z,102257
2017-12-22T03:48:38.387Z,102262
2017-12-22T03:51:08.330Z,102272
2017-12-22T03:53:38.298Z,102263
2017-12-22T03:56:08.266Z,102263
2017-12-22T03:58:38.217Z,102259
2017-12-22T04:01:08.152Z,102265
2017-12-22T04:03:38.225Z,102265
2017-12-22T04:06:09.451Z,102265
2017-12-22T04:08:39.539Z,102273
2017-12-22T04:11:09.498Z,102267
2017-12-22T04:13:39.437Z,102265
2017-12-22T04:16:09.338Z,102265
2017-12-22T04:18:39.311Z,102273
2017-12-22T04:21:09.256Z,102271
2017-12-22T04:23:39.328Z,102261
2017-12-22T04:26:09.201Z,102262
2017-12-22T04:28:39.125Z,102252
2017-12-22T04:31:09.059Z,102243
2017-12-22T04:33:39.590Z,102252
2017-12-22T04:36:09.487Z,102252
2017-12-22T04:38:39.435Z,102252
2017-12-22T04:41:09.394Z,102255
2017-12-22T04:43:39.337Z,102258
2017-12-22T04:46:09.252Z,102272
2017-12-22T04:48:39.209Z,102271
2017-12-22T04:51:09.133Z,102275
2017-12-22T04:53:39.103Z,102264
2017-12-22T04:56:09.006Z,102267
2017-12-22T04:58:38.937Z,102270
2017-12-22T05:01:08.852Z,102268
2017-12-22T05:03:38.788Z,102265
2017-12-22T05:06:08.735Z,102270
2017-12-22T05:08:38.646Z,102265
2017-12-22T05:11:08.633Z,102274
2017-12-22T05:13:38.566Z,102272
2017-12-22T05:16:08.516Z,102275
2017-12-22T05:18:38.434Z,102275
2017-12-22T05:21:08.605Z,102283
2017-12-22T05:23:38.557Z,102279
2017-12-22T05:26:08.514Z,102273
2017-12-22T05:28:38.444Z,102287
2017-12-22T05:31:08.418Z,102271
2017-12-22T05:33:38.433Z,102267
2017-12-22T05:36:08.367Z,102264
2017-12-22T05:38:38.279Z,102264
2017-12-22T05:41:08.192Z,102273
2017-12-22T05:43:38.118Z,102269
2017-12-22T05:46:08.052Z,102271
2017-12-22T05:48:37.963Z,102276
2017-12-22T05:51:07.961Z,102265
2017-12-22T05:53:37.894Z,102276
2017-12-22T05:56:07.784Z,102274
2017-12-22T05:58:37.717Z,102272
2017-12-22T06:01:07.681Z,102265
2017-12-22T06:03:37.614Z,102266
2017-12-22T06:06:07.497Z,102268
2017-12-22T06:08:37.421Z,102271
2017-12-22T06:11:07.382Z,102270
2017-12-22T06:13:37.309Z,102268
2017-12-22T06:16:07.198Z,102267
2017-12-22T06:18:37.163Z,102268
2017-12-22T06:21:07.050Z,102272
2017-12-22T06:23:36.967Z,102271
2017-12-22T06:26:06.914Z,102265
2017-12-22T06:28:36.906Z,102263
2017-12-22T06:31:06.805Z,102266
2017-12-22T06:33:36.766Z,102265
2017-12-22T06:36:06.691Z,102266
2017-12-22T06:38:36.653Z,102270
2017-12-22T06:41:06.654Z,102259
2017-12-22T06:43:36.580Z,102271
2017-12-22T06:46:06.556Z,102269
2017-12-22T06:48:36.580Z,102278
2017-12-22T06:51:06.546Z,102288
2017-12-22T06:53:36.501Z,102281
2017-12-22T06:56:06.444Z,102288
2017-12-22T06:58:36.341Z,102283
2017-12-22T07:01:06.297Z,102277
2017-12-22T07:03:36.191Z,102276
2017-12-22T07:06:07.048Z,102282
2017-12-22T07:08:37.043Z,102281
2017-12-22T07:11:06.970Z,102285
2017-12-22T07:13:36.869Z,102290
2017-12-22T07:16:06.850Z,102280
2017-12-22T07:18:36.801Z,102282
2017-12-22T07:21:06.777Z,102283
2017-12-22T07:23:36.752Z,102285
2017-12-22T07:26:06.676Z,102288
2017-12-22T07:28:36.612Z,102293
2017-12-22T07:31:06.512Z,102297
2017-12-22T07:33:36.451Z,102302
2017-12-22T07:36:08.955Z,102303
2017-12-22T07:38:39.102Z,102310
2017-12-22T07:41:09.081Z,102302
2017-12-22T07:43:39.028Z,102309
2017-12-22T07:46:08.933Z,102314
2017-12-22T07:48:38.920Z,102320
2017-12-22T07:51:08.868Z,102318
2017-12-22T07:53:38.781Z,102323
2017-12-22T07:56:08.691Z,102316
2017-12-22T07:58:38.746Z,102313
2017-12-22T08:01:08.849Z,102319
2017-12-22T08:03:38.852Z,102312
2017-12-22T08:06:08.834Z,102332
2017-12-22T08:08:38.814Z,102331
2017-12-22T08:11:08.754Z,102333
2017-12-22T08:13:38.654Z,102324
2017-12-22T08:16:08.591Z,102332
2017-12-22T08:18:38.561Z,102341
2017-12-22T08:21:08.545Z,102340
2017-12-22T08:23:38.542Z,102331
2017-12-22T08:26:08.510Z,102327
2017-12-22T08:28:38.472Z,102338
2017-12-22T08:31:08.395Z,102338
2017-12-22T08:33:38.388Z,102344
2017-12-22T08:36:08.357Z,102347
2017-12-22T08:38:38.266Z,102357
2017-12-22T08:41:08.282Z,102344
2017-12-22T08:43:38.182Z,102342
2017-12-22T08:46:08.134Z,102344
2017-12-22T08:48:38.023Z,102355
2017-12-22T08:51:07.982Z,102360
2017-12-22T08:53:38.014Z,102363
2017-12-22T08:56:08.031Z,102365
2017-12-22T08:58:37.964Z,102373
2017-12-22T09:01:07.878Z,102383
2017-12-22T09:03:37.836Z,102391
2017-12-22T09:06:07.772Z,102396
2017-12-22T09:08:37.786Z,102397
2017-12-22T09:11:07.684Z,102394
2017-12-22T09:13:37.622Z,102408
2017-12-22T09:16:07.517Z,102425
2017-12-22T09:18:37.499Z,102435
2017-12-22T09:21:07.397Z,102431
2017-12-22T09:23:37.359Z,102436
2017-12-22T09:26:07.281Z,102429
2017-12-22T09:28:37.286Z,102447
2017-12-22T09:31:07.188Z,102441
2017-12-22T09:33:37.275Z,102429
2017-12-22T09:36:07.166Z,102425
2017-12-22T09:38:37.140Z,102426
2017-12-22T09:41:07.237Z,102430
2017-12-22T09:43:37.212Z,102415
2017-12-22T09:46:07.101Z,102419
2017-12-22T09:48:37.054Z,102413
2017-12-22T09:51:07.151Z,102418
2017-12-22T09:53:37.091Z,102443
2017-12-22T09:56:07.065Z,102461
2017-12-22T09:58:37.016Z,102465
2017-12-22T10:01:06.905Z,102458
2017-12-22T10:03:36.820Z,102461
2017-12-22T10:06:06.733Z,102458
2017-12-22T10:08:36.648Z,102441
2017-12-22T10:11:06.710Z,102436
2017-12-22T10:13:36.608Z,102434
2017-12-22T10:16:07.259Z,102433
2017-12-22T10:18:37.195Z,102440
2017-12-22T10:21:07.125Z,102435
2017-12-22T10:23:37.036Z,102433
2017-12-22T10:26:07.021Z,102446
2017-12-22T10:28:36.916Z,102443
2017-12-22T10:31:06.838Z,102446
2017-12-22T10:33:36.799Z,102442
2017-12-22T10:36:06.720Z,102431
2017-12-22T10:38:36.676Z,102427
2017-12-22T10:41:06.584Z,102425
2017-12-22T10:43:36.660Z,102415
2017-12-22T10:46:06.578Z,102418
2017-12-22T10:48:36.615Z,102423
2017-12-22T10:51:06.510Z,102419
2017-12-22T10:53:36.464Z,102425
2017-12-22T10:56:06.406Z,102431
2017-12-22T10:58:36.368Z,102433
2017-12-22T11:01:06.287Z,102423
2017-12-22T11:03:36.217Z,102424
2017-12-22T11:06:06.112Z,102429
2017-12-22T11:08:36.017Z,102430
2017-12-22T11:11:05.914Z,102426
2017-12-22T11:13:35.831Z,102408
2017-12-22T11:16:05.791Z,102416
2017-12-22T11:18:35.761Z,102413
2017-12-22T11:21:05.697Z,102425
2017-12-22T11:23:35.664Z,102412
2017-12-22T11:26:05.805Z,102414
2017-12-22T11:28:35.698Z,102439
2017-12-22T11:31:05.639Z,102427
2017-12-22T11:33:35.549Z,102424
2017-12-22T11:36:05.585Z,102426
2017-12-22T11:38:35.550Z,102421
2017-12-22T11:41:05.507Z,102421
2017-12-22T11:43:36.173Z,102403
2017-12-22T11:46:06.085Z,102406
2017-12-22T11:48:35.984Z,102401
2017-12-22T11:51:05.884Z,102392
2017-12-22T11:53:35.783Z,102387
2017-12-22T11:56:05.705Z,102385
2017-12-22T11:58:35.673Z,102378
2017-12-22T12:01:05.706Z,102372
2017-12-22T12:03:35.814Z,102389
2017-12-22T12:06:05.691Z,102400
2017-12-22T12:08:35.688Z,102386
2017-12-22T12:11:05.571Z,102391
2017-12-22T12:13:35.527Z,102391
2017-12-22T12:16:05.439Z,102391
2017-12-22T12:18:35.391Z,102373
2017-12-22T12:21:05.335Z,102364
2017-12-22T12:23:35.397Z,102383
2017-12-22T12:26:05.344Z,102390
2017-12-22T12:28:35.877Z,102397
2017-12-22T12:31:05.757Z,102390
2017-12-22T12:33:36.206Z,102401
2017-12-22T12:36:06.143Z,102393
2017-12-22T12:38:36.214Z,102387
2017-12-22T12:41:06.132Z,102373
2017-12-22T12:43:36.123Z,102381
2017-12-22T12:46:06.030Z,102378
2017-12-22T12:48:35.951Z,102368
2017-12-22T12:51:05.850Z,102371
2017-12-22T12:53:35.789Z,102372
2017-12-22T12:56:05.684Z,102375
2017-12-22T12:58:35.571Z,102383
2017-12-22T13:01:06.434Z,102378
2017-12-22T13:03:36.325Z,102388
2017-12-22T13:06:06.248Z,102387
2017-12-22T13:08:36.159Z,102396
2017-12-22T13:11:06.271Z,102397
2017-12-22T13:13:36.185Z,102401
2017-12-22T13:16:06.290Z,102396
2017-12-22T13:18:36.197Z,102397
2017-12-22T13:21:06.319Z,102408
2017-12-22T13:23:36.246Z,102407
2017-12-22T13:26:06.192Z,102402
2017-12-22T13:28:36.180Z,102399
2017-12-22T13:31:06.155Z,102396
2017-12-22T13:33:36.093Z,102391
2017-12-22T13:36:06.017Z,102383
2017-12-22T13:38:35.954Z,102389
2017-12-22T13:41:05.877Z,102392
2017-12-22T13:43:35.909Z,102393
2017-12-22T13:46:05.795Z,102390
2017-12-22T13:48:35.717Z,102396
2017-12-22T13:51:05.975Z,102392
2017-12-22T13:53:37.086Z,102394
2017-12-22T13:56:07.028Z,102396
2017-12-22T13:58:36.947Z,102387
2017-12-22T14:01:06.884Z,102391
2017-12-22T14:03:36.822Z,102383
2017-12-22T14:06:06.721Z,102387
2017-12-22T14:08:36.638Z,102389
2017-12-22T14:11:06.547Z,102399
2017-12-22T14:13:36.441Z,102402
2017-12-22T14:16:06.376Z,102398
2017-12-22T14:18:36.280Z,102398
2017-12-22T14:21:06.194Z,102393
2017-12-22T14:23:36.145Z,102383
2017-12-22T14:26:06.378Z,102378
2017-12-22T14:28:36.302Z,102386
2017-12-22T14:31:06.428Z,102371
2017-12-22T14:33:36.321Z,102366
2017-12-22T14:36:06.279Z,102378
2017-12-22T14:38:36.235Z,102388
2017-12-22T14:41:06.158Z,102391
2017-12-22T14:43:36.063Z,102394
2017-12-22T14:46:06.028Z,102402
2017-12-22T14:48:36.101Z,102392
2017-12-22T14:51:06.027Z,102387
2017-12-22T14:53:35.934Z,102393
2017-12-22T14:56:05.873Z,102393
2017-12-22T14:58:35.759Z,102394
2017-12-22T15:01:05.655Z,102392
2017-12-22T15:03:35.591Z,102393
2017-12-22T15:06:05.474Z,102406
2017-12-22T15:08:35.415Z,102414
2017-12-22T15:11:05.343Z,102411
2017-12-22T15:13:35.301Z,102408
2017-12-22T15:16:05.268Z,102411
2017-12-22T15:18:35.212Z,102406
2017-12-22T15:21:05.121Z,102404
2017-12-22T15:23:35.100Z,102405
2017-12-22T15:26:05.017Z,102416
2017-12-22T15:28:34.936Z,102415
2017-12-22T15:31:04.885Z,102413
2017-12-22T15:33:34.770Z,102412
2017-12-22T15:36:04.724Z,102415
2017-12-22T15:38:34.640Z,102415
2017-12-22T15:41:04.777Z,102407
2017-12-22T15:43:34.652Z,102400
2017-12-22T15:46:04.603Z,102393
2017-12-22T15:48:34.653Z,102378
2017-12-22T15:51:04.697Z,102381
2017-12-22T15:53:34.639Z,102383
2017-12-22T15:56:04.567Z,102393
2017-12-22T15:58:34.481Z,102400
2017-12-22T16:01:04.440Z,102401
2017-12-22T16:03:34.367Z,102399
2017-12-22T16:06:04.327Z,102407
2017-12-22T16:08:34.255Z,102401
2017-12-22T16:11:04.205Z,102395
2017-12-22T16:13:34.242Z,102393
2017-12-22T16:16:04.225Z,102397
2017-12-22T16:18:34.140Z,102390
2017-12-22T16:21:04.113Z,102384
2017-12-22T16:23:34.013Z,102401
2017-12-22T16:26:03.932Z,102412
2017-12-22T16:28:33.855Z,102416
2017-12-22T16:31:03.769Z,102419
2017-12-22T16:33:33.777Z,102429
2017-12-22T16:36:03.681Z,102433
2017-12-22T16:38:33.760Z,102416
2017-12-22T16:41:03.675Z,102427
2017-12-22T16:43:33.653Z,102416
2017-12-22T16:46:03.607Z,102401
2017-12-22T16:48:33.564Z,102403
2017-12-22T16:51:03.463Z,102397
2017-12-22T16:53:33.446Z,102404
2017-12-22T16:56:03.404Z,102387
2017-12-22T16:58:33.381Z,102371
2017-12-22T17:01:03.284Z,102381
2017-12-22T17:03:33.232Z,102384
2017-12-22T17:06:03.151Z,102374
2017-12-22T17:08:33.094Z,102385
2017-12-22T17:11:03.514Z,102388
2017-12-22T17:13:33.472Z,102391
2017-12-22T17:16:03.410Z,102388
2017-12-22T17:18:33.369Z,102399
2017-12-22T17:21:03.521Z,102402
2017-12-22T17:23:33.628Z,102413
2017-12-22T17:26:03.537Z,102421
2017-12-22T17:28:33.445Z,102416
2017-12-22T17:31:03.379Z,102415
2017-12-22T17:33:33.308Z,102409
2017-12-22T17:36:03.244Z,102416
2017-12-22T17:38:33.153Z,102419
2017-12-22T17:41:03.086Z,102419
2017-12-22T17:43:33.017Z,102425
2017-12-22T17:46:02.990Z,102419
2017-12-22T17:48:32.976Z,102422
2017-12-22T17:51:02.869Z,102424
2017-12-22T17:53:32.750Z,102433
2017-12-22T17:56:02.683Z,102423
2017-12-22T17:58:32.665Z,102433
2017-12-22T18:01:02.601Z,102420
2017-12-22T18:03:32.500Z,102423
2017-12-22T18:06:02.430Z,102435
2017-12-22T18:08:32.321Z,102433
2017-12-22T18:11:02.334Z,102427
2017-12-22T18:13:32.301Z,102420
2017-12-22T18:16:02.266Z,102422
2017-12-22T18:18:32.239Z,102403
2017-12-22T18:21:02.140Z,102410
2017-12-22T18:23:32.090Z,102411
2017-12-22T18:26:01.987Z,102420
2017-12-22T18:28:31.877Z,102415
2017-12-22T18:31:01.806Z,102417
2017-12-22T18:33:31.727Z,102417
2017-12-22T18:36:01.820Z,102410
2017-12-22T18:38:31.851Z,102420
2017-12-22T18:41:01.799Z,102424
2017-12-22T18:43:31.796Z,102427
2017-12-22T18:46:01.850Z,102421
2017-12-22T18:48:31.785Z,102427
2017-12-22T18:51:01.780Z,102433
2017-12-22T18:53:31.735Z,102434
2017-12-22T18:56:01.703Z,102431
2017-12-22T18:58:31.662Z,102440
2017-12-22T19:01:01.558Z,102436
2017-12-22T19:03:31.473Z,102440
2017-12-22T19:06:02.215Z,102449
2017-12-22T19:08:32.152Z,102455
2017-12-22T19:11:02.051Z,102464
2017-12-22T19:13:32.005Z,102461
2017-12-22T19:16:01.940Z,102460
2017-12-22T19:18:31.863Z,102454
2017-12-22T19:21:01.915Z,102460
2017-12-22T19:23:32.709Z,102453
2017-12-22T19:26:02.670Z,102455
2017-12-22T19:28:32.641Z,102449
2017-12-22T19:31:02.574Z,102449
2017-12-22T19:33:32.513Z,102457
2017-12-22T19:36:02.469Z,102454
2017-12-22T19:38:32.448Z,102463
2017-12-22T19:41:02.413Z,102457
2017-12-22T19:43:32.654Z,102471
2017-12-22T19:46:03.334Z,102464
2017-12-22T19:48:33.329Z,102461
2017-12-22T19:51:03.281Z,102461
2017-12-22T19:53:33.555Z,102465
2017-12-22T19:56:03.551Z,102457
2017-12-22T19:58:33.521Z,102453
2017-12-22T20:01:03.500Z,102445
2017-12-22T20:03:33.444Z,102445
2017-12-22T20:06:03.523Z,102449
2017-12-22T20:08:33.472Z,102444
2017-12-22T20:11:03.415Z,102442
2017-12-22T20:13:33.334Z,102446
2017-12-22T20:16:03.285Z,102437
2017-12-22T20:18:33.266Z,102432
2017-12-22T20:21:03.195Z,102426
2017-12-22T20:23:33.118Z,102431
2017-12-22T20:26:03.092Z,102428
2017-12-22T20:28:33.055Z,102428
2017-12-22T20:31:03.041Z,102427
2017-12-22T20:33:32.946Z,102440
2017-12-22T20:36:02.909Z,102430
2017-12-22T20:38:32.850Z,102429
2017-12-22T20:41:02.775Z,102420
2017-12-22T20:43:32.739Z,102424
2017-12-22T20:46:02.671Z,102406
2017-12-22T20:48:32.618Z,102427
2017-12-22T20:51:02.560Z,102422
2017-12-22T20:53:32.474Z,102430
2017-12-22T20:56:02.407Z,102418
2017-12-22T20:58:32.347Z,102409
2017-12-22T21:01:02.281Z,102399
2017-12-22T21:03:32.244Z,102402
2017-12-22T21:06:02.242Z,102394
2017-12-22T21:08:32.308Z,102395
2017-12-22T21:11:02.353Z,102393
2017-12-22T21:13:32.375Z,102301
2017-12-22T21:16:02.286Z,102397
2017-12-22T21:18:32.235Z,102332
2017-12-22T21:21:02.165Z,102399
2017-12-22T21:23:32.144Z,102403
2017-12-22T21:26:02.055Z,102410
2017-12-22T21:28:32.139Z,102404
2017-12-22T21:31:02.126Z,102407
2017-12-22T21:33:32.104Z,102405
2017-12-22T21:36:02.111Z,102405
2017-12-22T21:38:32.030Z,102410
2017-12-22T21:41:02.944Z,102401
2017-12-22T21:43:32.867Z,102412
2017-12-22T21:46:02.758Z,102402
2017-12-22T21:48:32.680Z,102409
2017-12-22T21:51:02.565Z,102404
2017-12-22T21:53:32.569Z,102411
2017-12-22T21:56:02.470Z,102409
2017-12-22T21:58:32.382Z,102416
2017-12-22T22:01:02.322Z,102435
2017-12-22T22:03:32.279Z,102427
2017-12-22T22:06:02.187Z,102413
2017-12-22T22:08:32.269Z,102418
2017-12-22T22:11:02.269Z,102415
2017-12-22T22:13:32.287Z,102405
2017-12-22T22:16:02.204Z,102402
2017-12-22T22:18:32.170Z,102403
2017-12-22T22:21:02.206Z,102400
2017-12-22T22:23:33.523Z,102388
2017-12-22T22:26:04.079Z,102389
2017-12-22T22:28:34.001Z,102392
2017-12-22T22:31:04.004Z,102382
2017-12-22T22:33:33.929Z,102365
2017-12-22T22:36:03.822Z,102368
2017-12-22T22:38:33.797Z,102366
2017-12-22T22:41:03.805Z,102359
2017-12-22T22:43:33.747Z,102369
2017-12-22T22:46:03.867Z,102355
2017-12-22T22:48:33.843Z,102353
2017-12-22T22:51:03.778Z,102364
2017-12-22T22:53:33.787Z,102361
2017-12-22T22:56:03.730Z,102350
2017-12-22T22:58:33.689Z,102336
2017-12-22T23:01:03.621Z,102333
2017-12-22T23:03:33.559Z,102327
2017-12-22T23:06:03.530Z,102337
2017-12-22T23:08:33.551Z,102336
2017-12-22T23:11:03.487Z,102326
2017-12-22T23:13:33.636Z,102326
2017-12-22T23:16:03.553Z,102323
2017-12-22T23:18:33.499Z,102329
2017-12-22T23:21:03.449Z,102324
2017-12-22T23:23:33.451Z,102320
2017-12-22T23:26:03.420Z,102323
2017-12-22T23:28:33.365Z,102312
2017-12-22T23:31:03.274Z,102311
2017-12-22T23:33:33.380Z,102302
2017-12-22T23:36:03.287Z,102309
2017-12-22T23:38:33.250Z,102305
2017-12-22T23:41:03.178Z,102304
2017-12-22T23:43:33.105Z,102296
2017-12-22T23:46:03.015Z,102298
2017-12-22T23:48:32.940Z,102290
2017-12-22T23:51:02.861Z,102277
2017-12-22T23:53:32.739Z,102275
2017-12-22T23:56:02.691Z,102281
2017-12-22T23:58:32.595Z,102274
